sensor_id;sensor_type;location;lat;lon;timestamp;pressure;altitude;pressure_sealevel;temperature;humidity
18533;BME280;9396;51.510;11.934;2023-11-22T00:01:51;101381.84;;;2.26;91.18
18533;BME280;9396;51.510;11.934;2023-11-22T00:04:18;101396.69;;;2.44;92.12
18533;BME280;9396;51.510;11.934;2023-11-22T00:06:45;101393.19;;;2.43;92.30
18533;BME280;9396;51.510;11.934;2023-11-22T00:09:12;101397.66;;;2.58;92.36
18533;BME280;9396;51.510;11.934;2023-11-22T00:11:39;101400.06;;;2.63;91.93
18533;BME280;9396;51.510;11.934;2023-11-22T00:14:06;101399.31;;;2.44;92.25
18533;BME280;9396;51.510;11.934;2023-11-22T00:16:33;101396.50;;;2.47;91.98
18533;BME280;9396;51.510;11.934;2023-11-22T00:19:03;101393.97;;;2.45;91.48
18533;BME280;9396;51.510;11.934;2023-11-22T00:21:31;101390.63;;;2.59;92.74
18533;BME280;9396;51.510;11.934;2023-11-22T00:23:58;101390.47;;;2.62;91.42
18533;BME280;9396;51.510;11.934;2023-11-22T00:26:24;101399.44;;;2.58;90.85
18533;BME280;9396;51.510;11.934;2023-11-22T00:28:51;101408.47;;;2.52;91.52
18533;BME280;9396;51.510;11.934;2023-11-22T00:31:18;101413.72;;;2.69;90.83
18533;BME280;9396;51.510;11.934;2023-11-22T00:33:44;101426.31;;;2.63;90.92
18533;BME280;9396;51.510;11.934;2023-11-22T00:36:13;101430.78;;;2.61;91.34
18533;BME280;9396;51.510;11.934;2023-11-22T00:38:39;101431.34;;;2.50;91.63
18533;BME280;9396;51.510;11.934;2023-11-22T00:41:06;101422.91;;;2.61;91.70
18533;BME280;9396;51.510;11.934;2023-11-22T00:56:41;101441.91;;;2.66;91.99
18533;BME280;9396;51.510;11.934;2023-11-22T00:59:08;101436.28;;;2.39;92.58
18533;BME280;9396;51.510;11.934;2023-11-22T01:01:34;101450.50;;;2.52;93.26
18533;BME280;9396;51.510;11.934;2023-11-22T01:04:01;101438.66;;;2.61;93.22
18533;BME280;9396;51.510;11.934;2023-11-22T01:06:28;101441.28;;;2.61;92.32
18533;BME280;9396;51.510;11.934;2023-11-22T01:08:55;101444.00;;;2.59;92.44
18533;BME280;9396;51.510;11.934;2023-11-22T01:11:22;101458.13;;;2.57;92.30
18533;BME280;9396;51.510;11.934;2023-11-22T01:13:50;101455.50;;;2.40;92.52
18533;BME280;9396;51.510;11.934;2023-11-22T01:16:17;101455.28;;;2.61;93.19
18533;BME280;9396;51.510;11.934;2023-11-22T01:18:43;101449.69;;;2.67;92.14
18533;BME280;9396;51.510;11.934;2023-11-22T01:21:11;101453.28;;;2.66;91.85
18533;BME280;9396;51.510;11.934;2023-11-22T01:23:38;101455.50;;;2.40;92.33
18533;BME280;9396;51.510;11.934;2023-11-22T01:26:04;101462.75;;;2.52;92.45
18533;BME280;9396;51.510;11.934;2023-11-22T01:28:31;101466.63;;;2.62;92.14
18533;BME280;9396;51.510;11.934;2023-11-22T01:31:00;101457.13;;;2.59;92.14
18533;BME280;9396;51.510;11.934;2023-11-22T01:33:27;101463.09;;;2.63;91.76
18533;BME280;9396;51.510;11.934;2023-11-22T01:35:54;101467.84;;;2.55;91.80
18533;BME280;9396;51.510;11.934;2023-11-22T01:38:21;101471.19;;;2.75;91.46
18533;BME280;9396;51.510;11.934;2023-11-22T01:40:48;101476.06;;;2.49;91.47
18533;BME280;9396;51.510;11.934;2023-11-22T01:43:17;101487.50;;;2.65;92.17
18533;BME280;9396;51.510;11.934;2023-11-22T01:45:44;101499.22;;;2.58;92.11
18533;BME280;9396;51.510;11.934;2023-11-22T01:48:12;101499.59;;;2.67;92.61
18533;BME280;9396;51.510;11.934;2023-11-22T01:50:39;101495.28;;;2.66;92.04
18533;BME280;9396;51.510;11.934;2023-11-22T01:53:06;101499.16;;;2.59;91.69
18533;BME280;9396;51.510;11.934;2023-11-22T01:55:34;101497.84;;;2.68;92.35
18533;BME280;9396;51.510;11.934;2023-11-22T01:58:00;101498.13;;;2.45;92.62
18533;BME280;9396;51.510;11.934;2023-11-22T02:00:32;101484.09;;;2.63;91.90
18533;BME280;9396;51.510;11.934;2023-11-22T02:03:02;101478.16;;;2.59;92.30
18533;BME280;9396;51.510;11.934;2023-11-22T02:05:30;101481.47;;;2.63;92.27
18533;BME280;9396;51.510;11.934;2023-11-22T02:07:57;101486.22;;;2.55;91.95
18533;BME280;9396;51.510;11.934;2023-11-22T02:10:24;101482.53;;;2.42;93.59
18533;BME280;9396;51.510;11.934;2023-11-22T02:12:51;101499.53;;;2.52;93.33
18533;BME280;9396;51.510;11.934;2023-11-22T02:15:17;101480.97;;;2.55;92.45
18533;BME280;9396;51.510;11.934;2023-11-22T02:17:44;101480.69;;;2.61;91.95
18533;BME280;9396;51.510;11.934;2023-11-22T02:20:11;101482.06;;;2.68;91.77
18533;BME280;9396;51.510;11.934;2023-11-22T02:22:47;101499.44;;;2.36;92.39
18533;BME280;9396;51.510;11.934;2023-11-22T02:25:15;101499.59;;;2.33;92.98
18533;BME280;9396;51.510;11.934;2023-11-22T02:27:42;101502.75;;;2.40;93.06
18533;BME280;9396;51.510;11.934;2023-11-22T02:30:09;101503.38;;;2.28;92.30
18533;BME280;9396;51.510;11.934;2023-11-22T02:32:36;101506.59;;;2.33;92.41
18533;BME280;9396;51.510;11.934;2023-11-22T02:35:04;101507.09;;;1.86;92.39
18533;BME280;9396;51.510;11.934;2023-11-22T02:37:33;101506.50;;;1.98;93.03
18533;BME280;9396;51.510;11.934;2023-11-22T02:40:05;101499.31;;;1.85;93.23
18533;BME280;9396;51.510;11.934;2023-11-22T02:42:34;101512.91;;;1.93;93.32
18533;BME280;9396;51.510;11.934;2023-11-22T02:45:01;101517.94;;;1.97;94.33
18533;BME280;9396;51.510;11.934;2023-11-22T02:47:27;101524.28;;;2.10;93.92
18533;BME280;9396;51.510;11.934;2023-11-22T02:49:57;101528.47;;;2.14;93.77
18533;BME280;9396;51.510;11.934;2023-11-22T02:52:24;101530.25;;;2.14;92.53
18533;BME280;9396;51.510;11.934;2023-11-22T02:54:52;101532.31;;;2.07;93.79
18533;BME280;9396;51.510;11.934;2023-11-22T02:57:18;101540.53;;;2.18;93.11
18533;BME280;9396;51.510;11.934;2023-11-22T02:59:46;101543.25;;;1.98;92.58
18533;BME280;9396;51.510;11.934;2023-11-22T03:02:13;101548.94;;;1.71;93.05
18533;BME280;9396;51.510;11.934;2023-11-22T03:04:42;101554.91;;;1.54;93.89
18533;BME280;9396;51.510;11.934;2023-11-22T03:07:08;101568.03;;;1.54;94.60
18533;BME280;9396;51.510;11.934;2023-11-22T03:09:35;101556.19;;;1.64;94.48
18533;BME280;9396;51.510;11.934;2023-11-22T03:12:02;101562.59;;;1.77;94.22
18533;BME280;9396;51.510;11.934;2023-11-22T03:17:51;101566.00;;;1.98;94.04
18533;BME280;9396;51.510;11.934;2023-11-22T03:20:18;101570.00;;;2.06;93.25
18533;BME280;9396;51.510;11.934;2023-11-22T03:22:44;101568.78;;;1.95;94.42
18533;BME280;9396;51.510;11.934;2023-11-22T03:25:14;101566.84;;;1.98;94.25
18533;BME280;9396;51.510;11.934;2023-11-22T03:27:40;101576.56;;;1.96;92.18
18533;BME280;9396;51.510;11.934;2023-11-22T03:30:08;101584.09;;;2.04;93.40
18533;BME280;9396;51.510;11.934;2023-11-22T03:32:37;101555.06;;;1.70;92.63
18533;BME280;9396;51.510;11.934;2023-11-22T03:35:07;101600.25;;;1.95;93.63
18533;BME280;9396;51.510;11.934;2023-11-22T03:37:34;101598.19;;;2.01;92.78
18533;BME280;9396;51.510;11.934;2023-11-22T03:40:01;101598.13;;;2.03;93.63
18533;BME280;9396;51.510;11.934;2023-11-22T03:42:28;101603.94;;;1.91;92.52
18533;BME280;9396;51.510;11.934;2023-11-22T03:44:55;101609.78;;;1.97;92.95
18533;BME280;9396;51.510;11.934;2023-11-22T03:47:24;101609.78;;;1.97;91.78
18533;BME280;9396;51.510;11.934;2023-11-22T03:49:50;101598.41;;;1.97;92.47
18533;BME280;9396;51.510;11.934;2023-11-22T03:52:18;101596.56;;;1.99;92.46
18533;BME280;9396;51.510;11.934;2023-11-22T03:54:45;101605.53;;;2.13;92.08
18533;BME280;9396;51.510;11.934;2023-11-22T03:57:12;101613.59;;;2.28;91.18
18533;BME280;9396;51.510;11.934;2023-11-22T03:59:40;101614.84;;;2.38;91.88
18533;BME280;9396;51.510;11.934;2023-11-22T04:02:08;101620.25;;;2.35;91.62
18533;BME280;9396;51.510;11.934;2023-11-22T04:04:34;101631.97;;;2.28;90.80
18533;BME280;9396;51.510;11.934;2023-11-22T04:07:02;101637.78;;;2.34;91.11
18533;BME280;9396;51.510;11.934;2023-11-22T04:09:30;101648.28;;;2.34;90.70
18533;BME280;9396;51.510;11.934;2023-11-22T04:11:56;101646.28;;;2.39;91.16
18533;BME280;9396;51.510;11.934;2023-11-22T04:14:23;101648.13;;;2.37;91.50
18533;BME280;9396;51.510;11.934;2023-11-22T04:16:50;101642.59;;;2.43;90.88
18533;BME280;9396;51.510;11.934;2023-11-22T04:19:16;101640.25;;;2.37;90.44
18533;BME280;9396;51.510;11.934;2023-11-22T04:21:43;101638.56;;;2.36;90.98
18533;BME280;9396;51.510;11.934;2023-11-22T04:24:09;101649.25;;;2.32;90.13
18533;BME280;9396;51.510;11.934;2023-11-22T04:26:39;101654.31;;;2.36;90.21
18533;BME280;9396;51.510;11.934;2023-11-22T04:29:05;101651.59;;;2.38;90.26
18533;BME280;9396;51.510;11.934;2023-11-22T04:31:32;101658.69;;;2.36;90.93
18533;BME280;9396;51.510;11.934;2023-11-22T04:33:58;101657.34;;;2.27;90.18
18533;BME280;9396;51.510;11.934;2023-11-22T04:36:25;101652.19;;;2.26;90.27
18533;BME280;9396;51.510;11.934;2023-11-22T04:38:52;101661.63;;;2.30;90.37
18533;BME280;9396;51.510;11.934;2023-11-22T04:41:19;101652.91;;;2.29;90.09
18533;BME280;9396;51.510;11.934;2023-11-22T04:43:46;101667.00;;;2.27;90.53
18533;BME280;9396;51.510;11.934;2023-11-22T04:46:13;101673.03;;;2.10;89.88
18533;BME280;9396;51.510;11.934;2023-11-22T04:48:39;101677.50;;;2.08;90.99
18533;BME280;9396;51.510;11.934;2023-11-22T04:51:07;101679.97;;;2.11;91.23
18533;BME280;9396;51.510;11.934;2023-11-22T04:53:34;101707.81;;;1.75;90.96
18533;BME280;9396;51.510;11.934;2023-11-22T04:56:01;101708.56;;;1.58;92.19
18533;BME280;9396;51.510;11.934;2023-11-22T04:58:30;101708.88;;;1.71;92.32
18533;BME280;9396;51.510;11.934;2023-11-22T05:00:58;101714.56;;;1.40;93.12
18533;BME280;9396;51.510;11.934;2023-11-22T05:03:27;101717.72;;;1.06;94.10
18533;BME280;9396;51.510;11.934;2023-11-22T05:05:53;101721.66;;;1.17;94.27
18533;BME280;9396;51.510;11.934;2023-11-22T05:08:20;101725.28;;;1.34;94.64
18533;BME280;9396;51.510;11.934;2023-11-22T05:10:46;101720.47;;;1.45;93.53
18533;BME280;9396;51.510;11.934;2023-11-22T05:13:13;101734.88;;;1.55;93.41
18533;BME280;9396;51.510;11.934;2023-11-22T05:15:40;101731.22;;;1.59;93.65
18533;BME280;9396;51.510;11.934;2023-11-22T05:18:08;101743.34;;;1.62;92.64
18533;BME280;9396;51.510;11.934;2023-11-22T05:20:34;101750.44;;;1.60;92.53
18533;BME280;9396;51.510;11.934;2023-11-22T05:23:01;101753.84;;;1.62;92.64
18533;BME280;9396;51.510;11.934;2023-11-22T05:25:27;101760.25;;;1.55;93.35
18533;BME280;9396;51.510;11.934;2023-11-22T05:27:54;101769.47;;;1.43;92.32
18533;BME280;9396;51.510;11.934;2023-11-22T05:30:21;101773.16;;;1.59;91.79
18533;BME280;9396;51.510;11.934;2023-11-22T05:32:47;101785.41;;;1.59;91.44
18533;BME280;9396;51.510;11.934;2023-11-22T05:35:15;101780.00;;;1.63;90.93
18533;BME280;9396;51.510;11.934;2023-11-22T05:37:42;101781.69;;;1.23;92.27
18533;BME280;9396;51.510;11.934;2023-11-22T05:40:09;101773.13;;;1.39;92.01
18533;BME280;9396;51.510;11.934;2023-11-22T05:42:36;101772.75;;;1.48;93.05
18533;BME280;9396;51.510;11.934;2023-11-22T05:45:03;101779.28;;;1.38;92.06
18533;BME280;9396;51.510;11.934;2023-11-22T05:47:31;101784.63;;;1.57;92.90
18533;BME280;9396;51.510;11.934;2023-11-22T05:49:57;101780.75;;;1.45;91.57
18533;BME280;9396;51.510;11.934;2023-11-22T05:52:25;101779.44;;;1.55;91.75
18533;BME280;9396;51.510;11.934;2023-11-22T05:54:52;101772.13;;;1.63;91.65
18533;BME280;9396;51.510;11.934;2023-11-22T05:57:18;101777.31;;;1.65;91.75
18533;BME280;9396;51.510;11.934;2023-11-22T05:59:46;101774.19;;;1.55;91.12
18533;BME280;9396;51.510;11.934;2023-11-22T06:02:13;101766.81;;;1.65;90.71
18533;BME280;9396;51.510;11.934;2023-11-22T06:04:39;101767.63;;;1.67;90.66
18533;BME280;9396;51.510;11.934;2023-11-22T06:07:06;101776.44;;;1.64;90.65
18533;BME280;9396;51.510;11.934;2023-11-22T06:09:34;101774.03;;;1.80;90.70
18533;BME280;9396;51.510;11.934;2023-11-22T06:12:01;101768.53;;;1.86;91.26
18533;BME280;9396;51.510;11.934;2023-11-22T06:14:28;101763.50;;;1.81;90.53
18533;BME280;9396;51.510;11.934;2023-11-22T06:16:54;101768.78;;;1.80;90.84
18533;BME280;9396;51.510;11.934;2023-11-22T06:19:21;101769.13;;;1.72;90.70
18533;BME280;9396;51.510;11.934;2023-11-22T06:21:48;101770.66;;;1.78;90.56
18533;BME280;9396;51.510;11.934;2023-11-22T06:24:14;101783.41;;;1.85;90.67
18533;BME280;9396;51.510;11.934;2023-11-22T06:26:43;101786.13;;;1.62;89.37
18533;BME280;9396;51.510;11.934;2023-11-22T06:29:11;101790.28;;;1.68;90.32
18533;BME280;9396;51.510;11.934;2023-11-22T06:31:38;101792.00;;;1.69;89.58
18533;BME280;9396;51.510;11.934;2023-11-22T06:34:05;101802.34;;;1.72;90.17
18533;BME280;9396;51.510;11.934;2023-11-22T06:36:32;101807.47;;;1.75;89.79
18533;BME280;9396;51.510;11.934;2023-11-22T06:38:59;101807.19;;;1.39;89.67
18533;BME280;9396;51.510;11.934;2023-11-22T06:41:26;101811.97;;;1.51;90.04
18533;BME280;9396;51.510;11.934;2023-11-22T06:43:55;101821.28;;;1.58;89.93
18533;BME280;9396;51.510;11.934;2023-11-22T06:46:23;101821.16;;;1.61;90.68
18533;BME280;9396;51.510;11.934;2023-11-22T06:48:49;101829.81;;;1.63;90.77
18533;BME280;9396;51.510;11.934;2023-11-22T06:51:16;101843.59;;;1.68;90.73
18533;BME280;9396;51.510;11.934;2023-11-22T06:53:43;101840.75;;;1.73;90.61
18533;BME280;9396;51.510;11.934;2023-11-22T06:56:10;101849.31;;;1.78;90.50
18533;BME280;9396;51.510;11.934;2023-11-22T06:58:37;101860.53;;;1.81;89.71
18533;BME280;9396;51.510;11.934;2023-11-22T07:01:05;101867.72;;;1.76;90.44
18533;BME280;9396;51.510;11.934;2023-11-22T07:03:32;101872.88;;;1.79;90.49
18533;BME280;9396;51.510;11.934;2023-11-22T07:05:59;101870.47;;;1.73;89.92
18533;BME280;9396;51.510;11.934;2023-11-22T07:08:25;101868.66;;;1.54;90.24
18533;BME280;9396;51.510;11.934;2023-11-22T07:10:53;101870.31;;;1.56;89.96
18533;BME280;9396;51.510;11.934;2023-11-22T07:13:22;101858.47;;;1.46;89.96
18533;BME280;9396;51.510;11.934;2023-11-22T07:15:49;101861.78;;;1.51;91.29
18533;BME280;9396;51.510;11.934;2023-11-22T07:18:17;101881.69;;;1.55;91.09
18533;BME280;9396;51.510;11.934;2023-11-22T07:20:44;101882.81;;;1.27;90.16
18533;BME280;9396;51.510;11.934;2023-11-22T07:23:13;101885.75;;;1.41;90.56
18533;BME280;9396;51.510;11.934;2023-11-22T07:25:41;101888.03;;;1.28;90.63
18533;BME280;9396;51.510;11.934;2023-11-22T07:28:08;101902.59;;;1.35;91.03
18533;BME280;9396;51.510;11.934;2023-11-22T07:30:35;101900.41;;;1.23;91.77
18533;BME280;9396;51.510;11.934;2023-11-22T07:33:04;101913.78;;;1.17;90.64
18533;BME280;9396;51.510;11.934;2023-11-22T07:35:32;101905.09;;;1.38;91.12
18533;BME280;9396;51.510;11.934;2023-11-22T07:37:59;101908.97;;;1.51;90.66
18533;BME280;9396;51.510;11.934;2023-11-22T07:40:26;101915.25;;;1.24;89.93
18533;BME280;9396;51.510;11.934;2023-11-22T07:42:53;101920.97;;;1.34;89.59
18533;BME280;9396;51.510;11.934;2023-11-22T07:45:19;101913.75;;;1.40;89.28
18533;BME280;9396;51.510;11.934;2023-11-22T07:47:47;101915.25;;;1.24;89.72
18533;BME280;9396;51.510;11.934;2023-11-22T07:50:14;101909.09;;;1.25;89.33
18533;BME280;9396;51.510;11.934;2023-11-22T07:52:42;101903.69;;;1.30;91.52
18533;BME280;9396;51.510;11.934;2023-11-22T07:55:09;101896.25;;;1.41;90.40
18533;BME280;9396;51.510;11.934;2023-11-22T07:57:36;101887.78;;;1.11;90.20
18533;BME280;9396;51.510;11.934;2023-11-22T08:00:05;101886.66;;;0.95;90.93
18533;BME280;9396;51.510;11.934;2023-11-22T08:02:33;101895.28;;;0.74;92.01
18533;BME280;9396;51.510;11.934;2023-11-22T08:04:59;101888.25;;;0.76;92.84
18533;BME280;9396;51.510;11.934;2023-11-22T08:07:29;101876.41;;;0.89;92.16
18533;BME280;9396;51.510;11.934;2023-11-22T08:09:59;101883.88;;;0.99;92.67
18533;BME280;9396;51.510;11.934;2023-11-22T08:12:34;101882.81;;;0.80;91.29
18533;BME280;9396;51.510;11.934;2023-11-22T08:15:01;101867.50;;;1.16;92.48
18533;BME280;9396;51.510;11.934;2023-11-22T08:17:28;101857.69;;;0.99;90.49
18533;BME280;9396;51.510;11.934;2023-11-22T08:19:57;101858.25;;;1.07;91.59
18533;BME280;9396;51.510;11.934;2023-11-22T08:22:24;101859.03;;;1.09;91.18
18533;BME280;9396;51.510;11.934;2023-11-22T08:24:52;101852.66;;;0.93;90.16
18533;BME280;9396;51.510;11.934;2023-11-22T08:27:22;101853.75;;;0.88;90.19
18533;BME280;9396;51.510;11.934;2023-11-22T08:29:48;101846.72;;;0.42;91.77
18533;BME280;9396;51.510;11.934;2023-11-22T08:32:15;101853.06;;;0.60;91.75
18533;BME280;9396;51.510;11.934;2023-11-22T08:34:43;101848.16;;;0.51;93.05
18533;BME280;9396;51.510;11.934;2023-11-22T08:37:10;101843.84;;;0.73;91.68
18533;BME280;9396;51.510;11.934;2023-11-22T08:39:37;101836.72;;;0.99;90.18
18533;BME280;9396;51.510;11.934;2023-11-22T08:42:04;101845.53;;;0.97;90.50
18533;BME280;9396;51.510;11.934;2023-11-22T08:44:36;101825.97;;;0.84;90.04
18533;BME280;9396;51.510;11.934;2023-11-22T08:47:03;101852.09;;;1.30;88.86
18533;BME280;9396;51.510;11.934;2023-11-22T08:49:30;101864.09;;;1.14;89.65
18533;BME280;9396;51.510;11.934;2023-11-22T08:51:57;101878.72;;;0.96;88.90
18533;BME280;9396;51.510;11.934;2023-11-22T08:54:24;101881.13;;;1.02;88.50
18533;BME280;9396;51.510;11.934;2023-11-22T08:56:53;101883.63;;;1.05;89.34
18533;BME280;9396;51.510;11.934;2023-11-22T08:59:21;101897.66;;;1.04;88.75
18533;BME280;9396;51.510;11.934;2023-11-22T09:01:49;101898.25;;;1.34;88.86
18533;BME280;9396;51.510;11.934;2023-11-22T09:04:16;101904.94;;;0.96;88.12
18533;BME280;9396;51.510;11.934;2023-11-22T09:06:44;101904.03;;;0.97;88.55
18533;BME280;9396;51.510;11.934;2023-11-22T09:09:12;101911.97;;;0.94;88.87
18533;BME280;9396;51.510;11.934;2023-11-22T09:11:41;101918.22;;;1.15;88.51
18533;BME280;9396;51.510;11.934;2023-11-22T09:14:07;101920.47;;;0.78;89.04
18533;BME280;9396;51.510;11.934;2023-11-22T09:16:36;101915.44;;;0.47;89.52
18533;BME280;9396;51.510;11.934;2023-11-22T09:19:05;101918.00;;;0.49;90.03
18533;BME280;9396;51.510;11.934;2023-11-22T09:21:33;101902.25;;;0.50;91.00
18533;BME280;9396;51.510;11.934;2023-11-22T09:24:00;101907.91;;;0.63;91.18
18533;BME280;9396;51.510;11.934;2023-11-22T09:26:27;101887.66;;;1.14;90.71
18533;BME280;9396;51.510;11.934;2023-11-22T09:28:54;101890.84;;;1.45;89.64
18533;BME280;9396;51.510;11.934;2023-11-22T09:31:21;101894.91;;;1.31;88.14
18533;BME280;9396;51.510;11.934;2023-11-22T09:33:48;101883.34;;;1.58;88.03
18533;BME280;9396;51.510;11.934;2023-11-22T09:36:16;101876.81;;;1.46;87.81
18533;BME280;9396;51.510;11.934;2023-11-22T09:38:43;101869.69;;;1.28;87.03
18533;BME280;9396;51.510;11.934;2023-11-22T09:41:10;101874.63;;;1.57;87.99
18533;BME280;9396;51.510;11.934;2023-11-22T09:43:37;101877.03;;;1.83;86.69
18533;BME280;9396;51.510;11.934;2023-11-22T09:46:05;101876.41;;;1.35;84.88
18533;BME280;9396;51.510;11.934;2023-11-22T09:48:35;101877.09;;;1.82;85.25
18533;BME280;9396;51.510;11.934;2023-11-22T09:51:04;101882.78;;;1.71;85.51
18533;BME280;9396;51.510;11.934;2023-11-22T09:53:39;101891.88;;;1.63;86.70
18533;BME280;9396;51.510;11.934;2023-11-22T09:56:08;101885.88;;;1.38;86.45
18533;BME280;9396;51.510;11.934;2023-11-22T09:58:36;101874.69;;;1.56;86.89
18533;BME280;9396;51.510;11.934;2023-11-22T10:01:10;101880.06;;;1.74;86.54
18533;BME280;9396;51.510;11.934;2023-11-22T10:03:38;101884.31;;;1.77;88.22
18533;BME280;9396;51.510;11.934;2023-11-22T10:06:06;101885.50;;;2.11;86.94
18533;BME280;9396;51.510;11.934;2023-11-22T10:08:34;101894.97;;;2.36;86.46
18533;BME280;9396;51.510;11.934;2023-11-22T10:11:03;101898.59;;;1.91;84.88
18533;BME280;9396;51.510;11.934;2023-11-22T10:13:30;101893.91;;;2.19;85.61
18533;BME280;9396;51.510;11.934;2023-11-22T10:16:09;101898.91;;;2.26;85.06
18533;BME280;9396;51.510;11.934;2023-11-22T10:18:39;101897.63;;;2.14;85.70
18533;BME280;9396;51.510;11.934;2023-11-22T10:21:18;101905.84;;;2.27;85.34
18533;BME280;9396;51.510;11.934;2023-11-22T10:23:47;101895.25;;;2.30;85.24
18533;BME280;9396;51.510;11.934;2023-11-22T10:26:14;101906.53;;;1.90;85.62
18533;BME280;9396;51.510;11.934;2023-11-22T10:28:41;101915.19;;;1.26;85.61
18533;BME280;9396;51.510;11.934;2023-11-22T10:31:09;101919.81;;;1.42;86.84
18533;BME280;9396;51.510;11.934;2023-11-22T10:33:39;101903.97;;;1.88;87.32
18533;BME280;9396;51.510;11.934;2023-11-22T10:36:06;101904.25;;;2.22;86.44
18533;BME280;9396;51.510;11.934;2023-11-22T10:38:34;101898.53;;;2.35;86.34
18533;BME280;9396;51.510;11.934;2023-11-22T10:41:05;101901.13;;;2.14;83.85
18533;BME280;9396;51.510;11.934;2023-11-22T10:43:34;101903.38;;;2.44;84.88
18533;BME280;9396;51.510;11.934;2023-11-22T10:46:01;101923.78;;;2.37;83.99
18533;BME280;9396;51.510;11.934;2023-11-22T10:48:30;101913.88;;;2.24;83.29
18533;BME280;9396;51.510;11.934;2023-11-22T10:51:00;101910.41;;;2.01;84.56
18533;BME280;9396;51.510;11.934;2023-11-22T10:53:32;101908.34;;;2.09;85.00
18533;BME280;9396;51.510;11.934;2023-11-22T10:56:04;101918.16;;;2.04;84.12
18533;BME280;9396;51.510;11.934;2023-11-22T10:58:43;101913.72;;;2.06;83.82
18533;BME280;9396;51.510;11.934;2023-11-22T11:01:13;101918.97;;;2.27;85.21
18533;BME280;9396;51.510;11.934;2023-11-22T11:03:45;101925.50;;;2.38;84.47
18533;BME280;9396;51.510;11.934;2023-11-22T11:06:16;101926.31;;;2.18;84.14
18533;BME280;9396;51.510;11.934;2023-11-22T11:08:46;101935.13;;;1.74;85.90
18533;BME280;9396;51.510;11.934;2023-11-22T11:11:16;101944.16;;;1.67;86.02
18533;BME280;9396;51.510;11.934;2023-11-22T11:13:44;101929.41;;;1.86;87.13
18533;BME280;9396;51.510;11.934;2023-11-22T11:16:11;101924.69;;;1.94;86.44
18533;BME280;9396;51.510;11.934;2023-11-22T11:18:38;101930.22;;;2.08;85.42
18533;BME280;9396;51.510;11.934;2023-11-22T11:21:08;101939.19;;;2.25;84.98
18533;BME280;9396;51.510;11.934;2023-11-22T11:23:38;101930.03;;;2.35;84.29
18533;BME280;9396;51.510;11.934;2023-11-22T11:26:13;101926.03;;;2.04;84.21
18533;BME280;9396;51.510;11.934;2023-11-22T11:28:44;101933.50;;;1.93;84.21
18533;BME280;9396;51.510;11.934;2023-11-22T11:31:11;101932.63;;;1.93;85.11
18533;BME280;9396;51.510;11.934;2023-11-22T11:33:53;101913.28;;;2.17;85.52
18533;BME280;9396;51.510;11.934;2023-11-22T11:36:22;101909.41;;;2.26;86.27
18533;BME280;9396;51.510;11.934;2023-11-22T11:38:49;101893.75;;;2.22;85.85
18533;BME280;9396;51.510;11.934;2023-11-22T11:41:17;101897.28;;;2.43;85.41
18533;BME280;9396;51.510;11.934;2023-11-22T11:43:46;101910.00;;;2.52;85.12
18533;BME280;9396;51.510;11.934;2023-11-22T11:46:14;101891.31;;;2.40;83.66
18533;BME280;9396;51.510;11.934;2023-11-22T11:48:45;101893.78;;;2.43;84.78
18533;BME280;9396;51.510;11.934;2023-11-22T11:51:14;101882.56;;;2.59;84.37
18533;BME280;9396;51.510;11.934;2023-11-22T11:53:41;101908.22;;;2.73;84.40
18533;BME280;9396;51.510;11.934;2023-11-22T11:56:09;101909.53;;;2.83;84.93
18533;BME280;9396;51.510;11.934;2023-11-22T11:58:37;101917.41;;;2.83;84.59
18533;BME280;9396;51.510;11.934;2023-11-22T12:01:05;101921.88;;;2.61;84.01
18533;BME280;9396;51.510;11.934;2023-11-22T12:03:32;101914.16;;;2.58;83.48
18533;BME280;9396;51.510;11.934;2023-11-22T12:05:59;101907.88;;;2.60;83.55
18533;BME280;9396;51.510;11.934;2023-11-22T12:08:26;101911.56;;;2.76;84.44
18533;BME280;9396;51.510;11.934;2023-11-22T12:10:55;101902.72;;;2.59;84.67
18533;BME280;9396;51.510;11.934;2023-11-22T12:13:24;101884.78;;;2.08;83.55
18533;BME280;9396;51.510;11.934;2023-11-22T12:15:51;101892.47;;;2.33;84.19
18533;BME280;9396;51.510;11.934;2023-11-22T12:18:20;101889.31;;;2.04;84.08
18533;BME280;9396;51.510;11.934;2023-11-22T12:20:54;101879.88;;;2.21;84.46
18533;BME280;9396;51.510;11.934;2023-11-22T12:23:21;101876.13;;;2.46;85.42
18533;BME280;9396;51.510;11.934;2023-11-22T12:25:48;101867.13;;;2.72;84.99
18533;BME280;9396;51.510;11.934;2023-11-22T12:28:16;101846.56;;;3.00;84.84
18533;BME280;9396;51.510;11.934;2023-11-22T12:30:43;101836.09;;;3.17;84.69
18533;BME280;9396;51.510;11.934;2023-11-22T12:33:10;101816.34;;;3.27;84.77
18533;BME280;9396;51.510;11.934;2023-11-22T12:35:40;101809.44;;;3.43;84.29
18533;BME280;9396;51.510;11.934;2023-11-22T12:38:06;101813.19;;;3.02;84.02
18533;BME280;9396;51.510;11.934;2023-11-22T12:40:33;101815.84;;;3.19;84.41
18533;BME280;9396;51.510;11.934;2023-11-22T12:43:00;101797.03;;;2.91;82.98
18533;BME280;9396;51.510;11.934;2023-11-22T12:45:29;101797.56;;;2.99;82.90
18533;BME280;9396;51.510;11.934;2023-11-22T12:47:59;101780.00;;;3.18;83.96
18533;BME280;9396;51.510;11.934;2023-11-22T12:50:29;101786.69;;;3.42;83.62
18533;BME280;9396;51.510;11.934;2023-11-22T12:52:56;101787.97;;;3.52;83.07
18533;BME280;9396;51.510;11.934;2023-11-22T12:55:23;101794.19;;;3.14;82.50
18533;BME280;9396;51.510;11.934;2023-11-22T12:57:56;101797.97;;;2.90;81.92
18533;BME280;9396;51.510;11.934;2023-11-22T13:00:24;101800.69;;;2.88;82.20
18533;BME280;9396;51.510;11.934;2023-11-22T13:02:51;101808.19;;;2.77;82.90
18533;BME280;9396;51.510;11.934;2023-11-22T13:05:17;101833.38;;;2.81;82.75
18533;BME280;9396;51.510;11.934;2023-11-22T13:07:44;101850.50;;;2.71;82.39
18533;BME280;9396;51.510;11.934;2023-11-22T13:10:12;101856.28;;;2.79;82.92
18533;BME280;9396;51.510;11.934;2023-11-22T13:12:41;101847.13;;;3.06;82.31
18533;BME280;9396;51.510;11.934;2023-11-22T13:15:09;101840.28;;;3.21;82.04
18533;BME280;9396;51.510;11.934;2023-11-22T13:17:37;101832.53;;;3.37;81.80
18533;BME280;9396;51.510;11.934;2023-11-22T13:20:06;101826.38;;;3.38;82.04